createdAt,value
2023-02-04T00:02:25.369Z,102299.31
2023-02-04T00:04:51.972Z,102300.94
2023-02-04T00:07:18.448Z,102308.31
2023-02-04T00:09:49.843Z,102320.03
2023-02-04T00:12:16.466Z,102318.19
2023-02-04T00:14:42.876Z,102312.13
2023-02-04T00:17:11.425Z,102318.41
2023-02-04T00:19:37.819Z,102322.06
2023-02-04T00:22:04.606Z,102331.25
2023-02-04T00:24:31.064Z,102331.25
2023-02-04T00:26:57.463Z,102342.59
2023-02-04T00:29:23.876Z,102342.19
2023-02-04T00:31:50.343Z,102353.53
2023-02-04T00:34:18.173Z,102349.31
2023-02-04T00:36:45.099Z,102350.03
2023-02-04T00:39:11.511Z,102345.25
2023-02-04T00:41:37.885Z,102352.22
2023-02-04T00:44:04.482Z,102349.66
2023-02-04T00:46:30.886Z,102354.44
2023-02-04T00:48:57.266Z,102352.47
2023-02-04T00:51:23.635Z,102352.81
2023-02-04T00:53:49.990Z,102356.34
2023-02-04T00:56:16.354Z,102362.31
2023-02-04T00:58:42.721Z,102362.00
2023-02-04T01:01:09.218Z,102364.22
2023-02-04T01:03:35.602Z,102354.31
2023-02-04T01:06:01.982Z,102360.53
2023-02-04T01:08:28.346Z,102373.72
2023-02-04T01:10:54.738Z,102373.34
2023-02-04T01:13:21.120Z,102381.47
2023-02-04T01:15:47.496Z,102387.69
2023-02-04T01:18:13.932Z,102392.09
2023-02-04T01:20:40.309Z,102395.75
2023-02-04T01:23:06.675Z,102390.25
2023-02-04T01:25:33.058Z,102397.41
2023-02-04T01:27:59.480Z,102399.63
2023-02-04T01:30:25.948Z,102397.66
2023-02-04T01:32:52.374Z,102400.72
2023-02-04T01:35:18.756Z,102409.16
2023-02-04T01:37:45.137Z,102409.00
2023-02-04T01:40:11.914Z,102414.34
2023-02-04T01:42:38.331Z,102407.56
2023-02-04T01:45:06.378Z,102407.19
2023-02-04T01:47:33.276Z,102410.50
2023-02-04T01:50:00.165Z,102425.53
2023-02-04T01:52:28.099Z,102429.19
2023-02-04T01:54:54.502Z,102431.75
2023-02-04T01:57:20.979Z,102431.63
2023-02-04T01:59:48.022Z,102433.78
2023-02-04T02:02:45.213Z,102425.34
2023-02-04T02:05:16.236Z,102438.38
2023-02-04T02:07:42.790Z,102434.53
2023-02-04T02:10:11.214Z,102427.97
2023-02-04T02:12:37.987Z,102425.56
2023-02-04T02:15:04.754Z,102432.16
2023-02-04T02:17:31.413Z,102434.53
2023-02-04T02:19:57.821Z,102437.13
2023-02-04T02:23:02.997Z,102442.97
2023-02-04T02:25:29.707Z,102440.19
2023-02-04T02:27:57.276Z,102438.75
2023-02-04T02:30:23.826Z,102439.69
2023-02-04T02:32:51.253Z,102439.88
2023-02-04T02:35:18.054Z,102444.25
2023-02-04T02:37:44.576Z,102440.03
2023-02-04T02:40:11.954Z,102448.28
2023-02-04T02:42:38.444Z,102447.75
2023-02-04T02:45:08.538Z,102447.22
2023-02-04T02:47:34.933Z,102452.91
2023-02-04T02:50:01.292Z,102451.25
2023-02-04T02:52:27.697Z,102452.34
2023-02-04T02:54:54.134Z,102457.44
2023-02-04T02:57:21.785Z,102456.53
2023-02-04T02:59:48.564Z,102456.19
2023-02-04T03:02:21.980Z,102467.00
2023-02-04T03:04:51.557Z,102458.94
2023-02-04T03:07:19.549Z,102458.38
2023-02-04T03:09:45.926Z,102456.00
2023-02-04T03:12:12.387Z,102464.78
2023-02-04T03:14:39.002Z,102462.25
2023-02-04T03:17:07.373Z,102454.16
2023-02-04T03:19:36.152Z,102466.28
2023-02-04T03:22:03.866Z,102469.38
2023-02-04T03:24:30.463Z,102465.13
2023-02-04T03:26:56.891Z,102464.78
2023-02-04T03:29:23.254Z,102466.81
2023-02-04T03:31:49.772Z,102470.88
2023-02-04T03:34:16.270Z,102471.41
2023-02-04T03:36:42.685Z,102479.41
2023-02-04T03:39:09.037Z,102484.56
2023-02-04T03:41:35.405Z,102483.19
2023-02-04T03:44:01.768Z,102487.72
2023-02-04T03:46:28.673Z,102489.31
2023-02-04T03:48:55.226Z,102488.94
2023-02-04T03:51:21.587Z,102487.13
2023-02-04T03:53:47.981Z,102479.22
2023-02-04T03:56:14.406Z,102497.38
2023-02-04T03:58:40.784Z,102499.78
2023-02-04T04:01:07.166Z,102499.22
2023-02-04T04:03:33.583Z,102504.44
2023-02-04T04:05:59.967Z,102501.44
2023-02-04T04:08:26.432Z,102505.50
2023-02-04T04:10:52.792Z,102519.44
2023-02-04T04:13:19.194Z,102522.25
2023-02-04T04:15:45.651Z,102515.09
2023-02-04T04:18:12.077Z,102522.06
2023-02-04T04:20:38.470Z,102520.38
2023-02-04T04:23:04.875Z,102526.44
2023-02-04T04:25:31.253Z,102542.63
2023-02-04T04:27:57.738Z,102537.13
2023-02-04T04:30:24.111Z,102546.63
2023-02-04T04:32:50.502Z,102538.00
2023-02-04T04:35:16.924Z,102536.34
2023-02-04T04:37:43.304Z,102546.09
2023-02-04T04:40:11.655Z,102548.81
2023-02-04T04:42:38.069Z,102546.00
2023-02-04T04:45:09.031Z,102548.81
2023-02-04T04:47:35.421Z,102557.41
2023-02-04T04:50:01.857Z,102551.03
2023-02-04T04:52:28.233Z,102558.13
2023-02-04T04:54:54.828Z,102558.31
2023-02-04T04:57:21.301Z,102563.69
2023-02-04T04:59:47.678Z,102566.09
2023-02-04T05:02:14.115Z,102560.25
2023-02-04T05:04:40.551Z,102562.28
2023-02-04T05:07:06.942Z,102568.16
2023-02-04T05:09:33.336Z,102577.06
2023-02-04T05:11:59.753Z,102572.63
2023-02-04T05:14:26.185Z,102572.91
2023-02-04T05:16:52.665Z,102567.84
2023-02-04T05:19:19.045Z,102574.50
2023-02-04T05:21:45.452Z,102581.53
2023-02-04T05:24:11.937Z,102587.00
2023-02-04T05:26:38.387Z,102591.84
2023-02-04T05:29:04.819Z,102585.41
2023-02-04T05:31:31.476Z,102586.66
2023-02-04T05:33:57.940Z,102596.75
2023-02-04T05:36:24.374Z,102593.63
2023-02-04T05:38:50.847Z,102597.72
2023-02-04T05:41:17.239Z,102595.88
2023-02-04T05:43:43.825Z,102601.91
2023-02-04T05:46:10.289Z,102606.88
2023-02-04T05:48:36.757Z,102613.06
2023-02-04T05:51:03.559Z,102615.09
2023-02-04T05:53:30.477Z,102613.13
2023-02-04T05:55:56.874Z,102616.50
2023-02-04T05:58:23.269Z,102613.13
2023-02-04T06:00:49.720Z,102617.19
2023-02-04T06:03:16.174Z,102623.44
2023-02-04T06:05:44.128Z,102621.56
2023-02-04T06:08:10.982Z,102627.47
2023-02-04T06:10:37.371Z,102634.25
2023-02-04T06:13:03.748Z,102626.88
2023-02-04T06:15:30.110Z,102630.03
2023-02-04T06:17:56.552Z,102634.63
2023-02-04T06:20:22.939Z,102637.59
2023-02-04T06:22:51.661Z,102645.47
2023-02-04T06:25:18.860Z,102645.13
2023-02-04T06:27:45.313Z,102645.13
2023-02-04T06:30:12.150Z,102652.50
2023-02-04T06:32:38.520Z,102653.38
2023-02-04T06:35:05.230Z,102661.28
2023-02-04T06:37:31.678Z,102655.78
2023-02-04T06:39:58.242Z,102649.03
2023-02-04T06:42:25.473Z,102648.63
2023-02-04T06:44:52.483Z,102656.91
2023-02-04T06:47:19.226Z,102659.25
2023-02-04T06:49:45.724Z,102656.13
2023-02-04T06:52:12.096Z,102654.63
2023-02-04T06:54:38.574Z,102662.53
2023-02-04T06:57:07.867Z,102660.56
2023-02-04T06:59:38.091Z,102659.06
2023-02-04T07:02:05.871Z,102667.53
2023-02-04T07:04:32.255Z,102668.06
2023-02-04T07:06:58.647Z,102680.56
2023-02-04T07:09:25.372Z,102680.75
2023-02-04T07:11:52.027Z,102683.69
2023-02-04T07:14:18.846Z,102698.72
2023-02-04T07:16:45.239Z,102702.66
2023-02-04T07:19:11.615Z,102702.13
2023-02-04T07:21:37.994Z,102698.66
2023-02-04T07:24:04.424Z,102691.94
2023-02-04T07:26:30.830Z,102697.59
2023-02-04T07:28:57.218Z,102699.06
2023-02-04T07:31:23.775Z,102696.56
2023-02-04T07:33:50.190Z,102702.41
2023-02-04T07:36:16.794Z,102700.63
2023-02-04T07:38:43.198Z,102699.59
2023-02-04T07:41:09.644Z,102701.09
2023-02-04T07:43:36.079Z,102702.06
2023-02-04T07:46:02.483Z,102704.81
2023-02-04T07:48:28.963Z,102704.28
2023-02-04T07:50:55.362Z,102712.41
2023-02-04T07:53:21.728Z,102704.06
2023-02-04T07:55:48.156Z,102713.19
2023-02-04T07:58:14.518Z,102721.72
2023-02-04T08:00:40.934Z,102717.69
2023-02-04T08:03:07.420Z,102717.97
2023-02-04T08:05:33.894Z,102723.56
2023-02-04T08:08:01.904Z,102717.88
2023-02-04T08:10:28.324Z,102717.16
2023-02-04T08:12:54.749Z,102722.13
2023-02-04T08:15:21.112Z,102720.09
2023-02-04T08:17:47.507Z,102721.94
2023-02-04T08:20:13.899Z,102728.03
2023-02-04T08:22:40.453Z,102729.69
2023-02-04T08:25:07.281Z,102731.91
2023-02-04T08:27:33.748Z,102735.03
2023-02-04T08:30:00.167Z,102746.81
2023-02-04T08:32:27.709Z,102742.00
2023-02-04T08:34:54.082Z,102743.09
2023-02-04T08:37:20.511Z,102760.00
2023-02-04T08:39:47.314Z,102766.28
2023-02-04T08:42:13.793Z,102772.50
2023-02-04T08:44:40.158Z,102771.06
2023-02-04T08:47:06.674Z,102776.38
2023-02-04T08:49:33.132Z,102778.19
2023-02-04T08:51:59.559Z,102776.19
2023-02-04T08:54:26.332Z,102785.38
2023-02-04T08:56:52.735Z,102785.19
2023-02-04T08:59:19.118Z,102782.78
2023-02-04T09:01:51.021Z,102796.91
2023-02-04T09:04:21.264Z,102797.84
2023-02-04T09:06:47.892Z,102792.34
2023-02-04T09:09:14.867Z,102799.84
2023-02-04T09:11:41.964Z,102795.84
2023-02-04T09:14:08.507Z,102799.66
2023-02-04T09:16:35.295Z,102793.75
2023-02-04T09:19:04.632Z,102793.84
2023-02-04T09:21:32.236Z,102791.66
2023-02-04T09:23:58.688Z,102795.53
2023-02-04T09:26:25.086Z,102794.25
2023-02-04T09:28:51.484Z,102799.03
2023-02-04T09:31:18.814Z,102800.72
2023-02-04T09:33:45.241Z,102800.34
2023-02-04T09:36:11.599Z,102799.44
2023-02-04T09:38:37.956Z,102801.81
2023-02-04T09:41:07.616Z,102809.84
2023-02-04T09:43:36.570Z,102812.44
2023-02-04T09:46:03.393Z,102805.66
2023-02-04T09:48:30.124Z,102806.97
2023-02-04T09:51:05.759Z,102807.19
2023-02-04T09:53:32.595Z,102801.28
2023-02-04T09:55:58.977Z,102806.78
2023-02-04T09:58:27.957Z,102808.25
2023-02-04T10:01:06.184Z,102818.91
2023-02-04T10:03:33.175Z,102822.25
2023-02-04T10:05:59.536Z,102821.66
2023-02-04T10:08:31.221Z,102814.06
2023-02-04T10:10:58.210Z,102825.88
2023-02-04T10:13:31.257Z,102828.31
2023-02-04T10:15:58.651Z,102832.38
2023-02-04T10:18:33.289Z,102832.56
2023-02-04T10:21:36.723Z,102826.13
2023-02-04T10:24:06.263Z,102833.84
2023-02-04T10:26:33.085Z,102826.13
2023-02-04T10:29:01.555Z,102830.00
2023-02-04T10:31:27.929Z,102837.38
2023-02-04T10:34:12.412Z,102838.28
2023-02-04T10:36:40.402Z,102839.56
2023-02-04T10:39:06.685Z,102839.38
2023-02-04T10:41:34.294Z,102835.00
2023-02-04T10:44:09.559Z,102831.09
2023-02-04T10:46:35.947Z,102832.59
2023-02-04T10:49:16.919Z,102836.25
2023-02-04T10:51:43.389Z,102830.53
2023-02-04T10:54:32.240Z,102836.94
2023-02-04T10:57:17.794Z,102831.78
2023-02-04T10:59:45.502Z,102830.09
2023-02-04T11:02:41.630Z,102837.81
2023-02-04T11:05:16.693Z,102837.31
2023-02-04T11:07:43.656Z,102828.16
2023-02-04T11:10:21.684Z,102831.22
2023-02-04T11:12:54.174Z,102832.38
2023-02-04T11:15:39.446Z,102830.72
2023-02-04T11:18:30.751Z,102839.25
2023-02-04T11:20:59.011Z,102839.38
2023-02-04T11:23:34.626Z,102834.59
2023-02-04T11:26:11.138Z,102832.69
2023-02-04T11:28:40.745Z,102831.22
2023-02-04T11:31:33.587Z,102836.22
2023-02-04T11:34:26.149Z,102831.75
2023-02-04T11:36:56.035Z,102833.31
2023-02-04T11:39:25.059Z,102834.03
2023-02-04T11:41:51.426Z,102824.53
2023-02-04T11:44:18.493Z,102823.63
2023-02-04T11:46:50.127Z,102830.34
2023-02-04T11:49:19.047Z,102833.31
2023-02-04T11:51:46.477Z,102830.56
2023-02-04T11:54:14.040Z,102835.69
2023-02-04T11:56:40.451Z,102834.59
2023-02-04T11:59:09.415Z,102830.59
2023-02-04T12:01:35.875Z,102835.09
2023-02-04T12:04:05.155Z,102835.53
2023-02-04T12:06:34.227Z,102831.25
2023-02-04T12:09:08.930Z,102831.78
2023-02-04T12:11:35.452Z,102835.75
2023-02-04T12:14:09.853Z,102830.00
2023-02-04T12:16:51.473Z,102820.00
2023-02-04T12:19:17.837Z,102833.91
2023-02-04T12:21:44.340Z,102836.13
2023-02-04T12:24:10.742Z,102838.06
2023-02-04T12:26:37.153Z,102840.47
2023-02-04T12:29:05.469Z,102846.31
2023-02-04T12:31:32.929Z,102848.16
2023-02-04T12:34:00.636Z,102855.22
2023-02-04T12:36:29.525Z,102860.06
2023-02-04T12:38:58.706Z,102851.31
2023-02-04T12:41:25.926Z,102850.31
2023-02-04T12:43:52.413Z,102853.53
2023-02-04T12:46:18.831Z,102851.81
2023-02-04T12:48:45.238Z,102858.56
2023-02-04T12:51:11.771Z,102854.06
2023-02-04T12:53:38.269Z,102856.63
2023-02-04T12:56:05.072Z,102858.66
2023-02-04T12:58:31.430Z,102873.16
2023-02-04T13:00:57.879Z,102865.47
2023-02-04T13:03:25.183Z,102862.88
2023-02-04T13:05:51.568Z,102863.31
2023-02-04T13:08:17.972Z,102867.09
2023-02-04T13:10:44.330Z,102861.84
2023-02-04T13:13:10.691Z,102872.25
2023-02-04T13:15:37.058Z,102853.00
2023-02-04T13:18:03.502Z,102840.81
2023-02-04T13:20:30.202Z,102846.91
2023-02-04T13:22:56.574Z,102834.81
2023-02-04T13:25:22.936Z,102850.97
2023-02-04T13:27:49.418Z,102854.63
2023-02-04T13:30:16.003Z,102850.28
2023-02-04T13:32:43.414Z,102844.16
2023-02-04T13:35:09.805Z,102848.72
2023-02-04T13:37:36.236Z,102841.28
2023-02-04T13:40:02.606Z,102850.34
2023-02-04T13:42:29.034Z,102847.75
2023-02-04T13:44:55.557Z,102849.09
2023-02-04T13:47:22.018Z,102849.31
2023-02-04T13:49:48.420Z,102857.03
2023-02-04T13:52:14.826Z,102855.75
2023-02-04T13:54:41.186Z,102854.25
2023-02-04T13:57:07.591Z,102849.13
2023-02-04T13:59:33.973Z,102844.50
2023-02-04T14:02:00.382Z,102846.94
2023-02-04T14:04:27.044Z,102843.97
2023-02-04T14:06:54.957Z,102846.53
2023-02-04T14:09:21.735Z,102850.59
2023-02-04T14:11:48.133Z,102844.31
2023-02-04T14:14:14.523Z,102848.31
2023-02-04T14:16:40.936Z,102858.34
2023-02-04T14:19:07.478Z,102852.44
2023-02-04T14:21:33.847Z,102850.16
2023-02-04T14:24:01.324Z,102851.47
2023-02-04T14:26:27.704Z,102855.84
2023-02-04T14:28:54.090Z,102851.13
2023-02-04T14:31:20.534Z,102854.72
2023-02-04T14:33:49.121Z,102856.47
2023-02-04T14:36:16.485Z,102852.81
2023-02-04T14:38:42.928Z,102851.84
2023-02-04T14:41:09.295Z,102846.47
2023-02-04T14:43:37.160Z,102845.56
2023-02-04T14:46:05.530Z,102853.63
2023-02-04T14:48:32.145Z,102855.13
2023-02-04T14:50:58.529Z,102850.06
2023-02-04T14:53:24.935Z,102854.28
2023-02-04T14:55:51.335Z,102849.69
2023-02-04T14:58:18.325Z,102846.03
2023-02-04T15:00:44.802Z,102852.06
2023-02-04T15:03:11.175Z,102856.16
2023-02-04T15:05:37.701Z,102863.56
2023-02-04T15:08:04.693Z,102855.75
2023-02-04T15:10:31.358Z,102858.13
2023-02-04T15:12:58.192Z,102861.53
2023-02-04T15:15:24.575Z,102851.09
2023-02-04T15:17:50.998Z,102849.41
2023-02-04T15:20:17.483Z,102850.38
2023-02-04T15:22:43.849Z,102855.31
2023-02-04T15:25:12.225Z,102849.25
2023-02-04T15:27:38.601Z,102853.59
2023-02-04T15:30:05.261Z,102854.63
2023-02-04T15:32:31.822Z,102852.84
2023-02-04T15:34:58.187Z,102852.84
2023-02-04T15:37:24.586Z,102859.50
2023-02-04T15:39:50.989Z,102862.63
2023-02-04T15:42:17.367Z,102862.16
2023-02-04T15:44:43.803Z,102873.91
2023-02-04T15:47:10.183Z,102874.59
2023-02-04T15:49:36.666Z,102874.44
2023-02-04T15:52:04.739Z,102870.78
2023-02-04T15:54:31.682Z,102880.38
2023-02-04T15:56:58.271Z,102890.56
2023-02-04T15:59:24.659Z,102897.75
2023-02-04T16:01:51.135Z,102898.13
2023-02-04T16:04:19.778Z,102892.22
2023-02-04T16:06:57.874Z,102894.75
2023-02-04T16:09:25.478Z,102896.38
2023-02-04T16:11:51.848Z,102900.25
2023-02-04T16:14:18.330Z,102900.44
2023-02-04T16:16:44.730Z,102903.91
2023-02-04T16:19:11.337Z,102909.78
2023-02-04T16:21:37.756Z,102913.44
2023-02-04T16:24:04.368Z,102913.94
2023-02-04T16:26:32.166Z,102916.88
2023-02-04T16:28:58.620Z,102923.97
2023-02-04T16:31:25.129Z,102921.00
2023-02-04T16:33:51.530Z,102928.97
2023-02-04T16:36:18.587Z,102924.34
2023-02-04T16:38:45.166Z,102929.31
2023-02-04T16:41:14.081Z,102924.28
2023-02-04T16:43:40.521Z,102931.66
2023-02-04T16:46:06.925Z,102922.63
2023-02-04T16:48:33.373Z,102928.44
2023-02-04T16:50:59.743Z,102927.84
2023-02-04T16:53:26.181Z,102929.16
2023-02-04T16:55:52.603Z,102937.53
2023-02-04T16:58:19.658Z,102942.22
2023-02-04T17:00:46.096Z,102943.72
2023-02-04T17:03:13.176Z,102951.31
2023-02-04T17:05:40.332Z,102946.31
2023-02-04T17:08:06.871Z,102958.25
2023-02-04T17:10:51.881Z,102957.56
2023-02-04T17:13:18.423Z,102957.28
2023-02-04T17:15:44.907Z,102960.28
2023-02-04T17:18:11.453Z,102965.34
2023-02-04T17:20:37.849Z,102966.38
2023-02-04T17:23:04.220Z,102967.50
2023-02-04T17:25:30.968Z,102964.00
2023-02-04T17:27:57.578Z,102965.47
2023-02-04T17:30:24.054Z,102958.59
2023-02-04T17:32:50.454Z,102957.16
2023-02-04T17:35:17.335Z,102957.97
2023-02-04T17:37:43.928Z,102959.41
2023-02-04T17:40:13.926Z,102962.56
2023-02-04T17:42:40.863Z,102957.56
2023-02-04T17:45:10.400Z,102963.69
2023-02-04T17:47:40.201Z,102971.38
2023-02-04T17:50:09.908Z,102975.59
2023-02-04T17:52:36.583Z,102957.19
2023-02-04T17:55:09.456Z,102956.78
2023-02-04T17:57:35.823Z,102961.66
2023-02-04T18:00:02.249Z,102959.19
2023-02-04T18:02:30.891Z,102965.47
2023-02-04T18:05:08.120Z,102963.22
2023-02-04T18:07:35.307Z,102965.59
2023-02-04T18:10:17.974Z,102965.19
2023-02-04T18:12:44.343Z,102967.16
2023-02-04T18:15:30.845Z,102967.56
2023-02-04T18:18:18.346Z,102972.50
2023-02-04T18:20:44.739Z,102977.13
2023-02-04T18:23:16.811Z,102977.13
2023-02-04T18:25:43.567Z,102975.47
2023-02-04T18:28:17.991Z,102970.84
2023-02-04T18:30:44.998Z,102975.25
2023-02-04T18:33:23.881Z,102971.97
2023-02-04T18:35:51.610Z,102969.13
2023-02-04T18:38:21.758Z,102976.59
2023-02-04T18:40:49.231Z,102971.59
2023-02-04T18:43:30.096Z,102973.00
2023-02-04T18:45:59.799Z,102974.97
2023-02-04T18:48:26.058Z,102970.97
2023-02-04T18:50:56.952Z,102977.50
2023-02-04T18:53:28.330Z,102978.03
2023-02-04T18:55:58.878Z,102980.69
2023-02-04T18:58:33.896Z,102979.47
2023-02-04T19:01:01.354Z,102992.25
2023-02-04T19:03:30.714Z,102991.94
2023-02-04T19:06:01.851Z,102988.38
2023-02-04T19:08:45.197Z,102989.09
2023-02-04T19:11:39.439Z,102992.69
2023-02-04T19:14:18.939Z,102992.03
2023-02-04T19:16:46.930Z,102980.75
2023-02-04T19:19:37.059Z,102985.03
2023-02-04T19:22:22.208Z,102990.38
2023-02-04T19:24:52.665Z,102991.69
2023-02-04T19:27:24.816Z,102989.97
2023-02-04T19:29:51.084Z,102996.09
2023-02-04T19:32:28.719Z,102993.03
2023-02-04T19:34:58.927Z,102990.56
2023-02-04T19:37:39.928Z,103000.94
2023-02-04T19:40:39.156Z,102999.63
2023-02-04T19:43:23.656Z,103005.53
2023-02-04T19:45:51.027Z,103004.13
2023-02-04T19:48:37.347Z,103003.97
2023-02-04T19:51:28.044Z,103005.97
2023-02-04T19:53:59.031Z,103004.47
2023-02-04T19:56:39.483Z,103009.09
2023-02-04T19:59:18.438Z,103014.34
2023-02-04T20:01:44.882Z,103011.09
2023-02-04T20:04:17.807Z,103011.31
2023-02-04T20:06:44.551Z,103019.59
2023-02-04T20:09:19.552Z,103013.91
2023-02-04T20:11:52.999Z,103016.72
2023-02-04T20:14:22.368Z,103012.78
2023-02-04T20:17:00.634Z,103009.66
2023-02-04T20:19:29.987Z,103002.69
2023-02-04T20:22:17.734Z,103000.91
2023-02-04T20:24:51.229Z,102996.13
2023-02-04T20:27:39.274Z,103000.63
2023-02-04T20:30:09.321Z,102998.75
2023-02-04T20:32:40.011Z,102989.66
2023-02-04T20:35:09.358Z,102995.28
2023-02-04T20:37:36.442Z,102982.78
2023-02-04T20:40:23.588Z,102988.75
2023-02-04T20:42:53.976Z,102983.19
2023-02-04T20:45:23.544Z,102987.59
2023-02-04T20:47:53.107Z,102995.28
2023-02-04T20:50:41.180Z,102983.22
2023-02-04T20:53:17.342Z,102988.94
2023-02-04T20:55:49.503Z,102986.81
2023-02-04T20:58:15.721Z,102976.22
2023-02-04T21:00:42.967Z,102978.06
2023-02-04T21:03:15.452Z,102981.19
2023-02-04T21:05:41.864Z,102974.22
2023-02-04T21:08:29.854Z,102977.47
2023-02-04T21:10:57.273Z,102979.16
2023-02-04T21:13:23.812Z,102975.59
2023-02-04T21:15:50.284Z,102973.84
2023-02-04T21:18:16.787Z,102973.03
2023-02-04T21:20:43.157Z,102983.75
2023-02-04T21:23:10.042Z,102988.59
2023-02-04T21:25:37.517Z,102988.59
2023-02-04T21:28:05.944Z,102985.94
2023-02-04T21:30:32.684Z,102986.97
2023-02-04T21:32:59.869Z,102981.38
2023-02-04T21:35:26.670Z,102983.34
2023-02-04T21:37:54.135Z,102979.53
2023-02-04T21:40:21.938Z,102985.63
2023-02-04T21:42:49.385Z,102990.94
2023-02-04T21:45:17.569Z,102988.88
2023-02-04T21:47:47.822Z,102991.19
2023-02-04T21:50:15.224Z,102994.25
2023-02-04T21:52:42.550Z,102995.88
2023-02-04T21:55:10.704Z,102990.59
2023-02-04T21:57:37.281Z,102986.50
2023-02-04T22:00:05.676Z,102992.03
2023-02-04T22:02:32.261Z,102984.66
2023-02-04T22:04:58.664Z,102983.22
2023-02-04T22:07:25.110Z,102987.94
2023-02-04T22:09:51.552Z,102976.25
2023-02-04T22:12:18.165Z,102977.66
2023-02-04T22:14:44.672Z,102977.47
2023-02-04T22:17:11.684Z,102969.97
2023-02-04T22:19:38.220Z,102976.75
2023-02-04T22:22:04.658Z,102969.28
2023-02-04T22:24:31.318Z,102969.56
2023-02-04T22:26:57.694Z,102969.03
2023-02-04T22:29:28.618Z,102965.25
2023-02-04T22:31:55.175Z,102963.31
2023-02-04T22:34:22.577Z,102964.75
2023-02-04T22:36:49.010Z,102958.91
2023-02-04T22:39:15.466Z,102956.34
2023-02-04T22:41:41.881Z,102960.88
2023-02-04T22:44:08.335Z,102952.03
2023-02-04T22:46:35.059Z,102955.31
2023-02-04T22:49:01.548Z,102952.03
2023-02-04T22:51:27.955Z,102947.75
2023-02-04T22:53:54.456Z,102948.03
2023-02-04T22:56:21.431Z,102952.94
2023-02-04T22:58:47.823Z,102961.78
2023-02-04T23:01:14.303Z,102959.84
2023-02-04T23:03:40.826Z,102958.69
2023-02-04T23:06:07.453Z,102963.81
2023-02-04T23:08:33.859Z,102977.50
2023-02-04T23:11:00.239Z,102974.91
2023-02-04T23:13:26.793Z,102980.81
2023-02-04T23:15:53.278Z,102979.56
2023-02-04T23:18:19.907Z,102978.44
2023-02-04T23:20:46.286Z,102974.16
2023-02-04T23:23:17.518Z,102961.94
2023-02-04T23:25:45.411Z,102962.03
2023-02-04T23:28:12.131Z,102966.22
2023-02-04T23:30:38.546Z,102964.94
2023-02-04T23:33:05.325Z,102974.94
2023-02-04T23:35:32.331Z,102967.81
2023-02-04T23:37:59.266Z,102962.28
2023-02-04T23:40:25.672Z,102961.03
2023-02-04T23:42:52.050Z,102959.22
2023-02-04T23:45:18.456Z,102955.50
2023-02-04T23:47:44.821Z,102954.16
2023-02-04T23:50:11.285Z,102947.72
2023-02-04T23:52:37.746Z,102954.19
2023-02-04T23:55:05.019Z,102949.88
2023-02-04T23:57:31.567Z,102947.53
2023-02-04T23:59:57.964Z,102941.59
